Time;durP1;ratioP1;P1;durP2;ratioP2;P2;SDS_P1;SDS_P2;PMS_P1;PMS_P2;Temp;Humidity;BMP_temperature;BMP_pressure;BME280_temperature;BME280_humidity;BME280_pressure;Samples;Min_cycle;Max_cycle;Signal;HPM_P1;HPM_P2
2024/03/02 00:00:48;;;;;;;;;;;;;;;10.78;52.05;99684.41;4937857;27;98566;-70
2024/03/02 00:03:15;;;;;;;;;;;;;;;10.78;51.88;99683.59;4962568;27;98029;-70
2024/03/02 00:05:41;;;;;;;;;;;;;;;10.77;52.18;99682.81;4962440;27;98143;-70
2024/03/02 00:08:08;;;;;;;;;;;;;;;10.76;52.01;99678.47;4946543;27;98539;-70
2024/03/02 00:10:40;;;;;;;;;;;;;;;10.76;52.20;99681.19;4958493;27;98329;-70
2024/03/02 00:13:09;;;;;;;;;;;;;;;10.76;52.08;99683.06;4997406;27;98092;-70
2024/03/02 00:15:46;;;;;;;;;;;;;;;10.76;51.63;99683.06;4983542;27;98077;-70
2024/03/02 00:18:13;;;;;;;;;;;;;;;10.76;51.96;99677.69;4964429;27;98447;-70
2024/03/02 00:20:40;;;;;;;;;;;;;;;10.74;52.02;99675.28;4969441;27;98171;-70
2024/03/02 00:23:07;;;;;;;;;;;;;;;10.75;52.05;99678.78;4965105;27;98293;-69
2024/03/02 00:25:40;;;;;;;;;;;;;;;10.76;51.56;99675.78;4994603;27;98137;-70
2024/03/02 00:28:33;;;;;;;;;;;;;;;10.76;51.77;99677.69;4979513;27;98201;-70
2024/03/02 00:31:04;;;;;;;;;;;;;;;10.75;51.91;99676.09;4984344;27;98830;-70
2024/03/02 00:33:33;;;;;;;;;;;;;;;10.76;52.17;99672.28;4963153;27;98418;-70
2024/03/02 00:36:00;;;;;;;;;;;;;;;10.75;51.95;99662.59;4966172;27;98597;-71
2024/03/02 00:38:27;;;;;;;;;;;;;;;10.76;52.09;99666.91;4983657;27;98328;-70
2024/03/02 00:40:53;;;;;;;;;;;;;;;10.76;51.77;99665.00;4964089;27;99151;-70
2024/03/02 00:43:41;;;;;;;;;;;;;;;10.75;52.20;99670.69;4977135;27;99438;-70
2024/03/02 00:46:07;;;;;;;;;;;;;;;10.76;51.82;99678.47;4984009;27;98521;-70
2024/03/02 00:48:37;;;;;;;;;;;;;;;10.75;51.79;99673.38;4960691;27;98213;-70
2024/03/02 00:51:04;;;;;;;;;;;;;;;10.76;52.05;99677.69;4963064;27;98190;-70
2024/03/02 00:53:31;;;;;;;;;;;;;;;10.75;52.31;99682.28;4981133;27;98225;-70
2024/03/02 00:55:58;;;;;;;;;;;;;;;10.75;52.24;99678.78;4969660;27;98949;-70
2024/03/02 00:58:25;;;;;;;;;;;;;;;10.75;51.87;99678.78;4979169;27;99930;-70
2024/03/02 01:00:51;;;;;;;;;;;;;;;10.75;51.74;99674.19;4993305;27;97977;-70
2024/03/02 01:03:19;;;;;;;;;;;;;;;10.75;52.11;99681.47;4980145;27;97972;-70
2024/03/02 01:05:45;;;;;;;;;;;;;;;10.74;51.82;99677.97;4983924;27;98743;-70
2024/03/02 01:08:11;;;;;;;;;;;;;;;10.75;51.82;99678.78;4999955;27;98149;-70
2024/03/02 01:10:38;;;;;;;;;;;;;;;10.75;52.00;99679.59;4982033;27;99660;-70
2024/03/02 01:13:05;;;;;;;;;;;;;;;10.74;51.78;99680.69;4983834;27;99217;-70
2024/03/02 01:15:33;;;;;;;;;;;;;;;10.75;52.08;99684.19;4985352;27;98189;-70
2024/03/02 01:17:59;;;;;;;;;;;;;;;10.75;51.82;99681.47;4982436;27;98440;-70
2024/03/02 01:20:25;;;;;;;;;;;;;;;10.74;52.04;99679.88;4974528;27;98652;-70
2024/03/02 01:22:52;;;;;;;;;;;;;;;10.74;52.08;99680.69;4992092;27;98425;-70
2024/03/02 01:25:18;;;;;;;;;;;;;;;10.74;52.09;99680.69;4983382;27;98790;-70
2024/03/02 01:27:48;;;;;;;;;;;;;;;10.74;51.84;99686.06;4983208;27;102799;-70
2024/03/02 01:30:15;;;;;;;;;;;;;;;10.75;51.90;99681.47;4965565;27;101942;-70
2024/03/02 01:32:41;;;;;;;;;;;;;;;10.74;51.70;99677.97;4983313;27;98310;-70
2024/03/02 01:35:08;;;;;;;;;;;;;;;10.74;51.90;99677.19;4983119;27;98245;-70
2024/03/02 01:37:34;;;;;;;;;;;;;;;10.74;51.84;99677.19;4987318;27;98067;-70
2024/03/02 01:40:01;;;;;;;;;;;;;;;10.73;52.16;99671.00;4967478;27;98183;-70
2024/03/02 01:42:27;;;;;;;;;;;;;;;10.74;51.83;99671.78;4975932;27;98196;-70
2024/03/02 01:44:53;;;;;;;;;;;;;;;10.74;51.82;99672.59;4984239;27;98238;-70
2024/03/02 01:47:20;;;;;;;;;;;;;;;10.74;51.93;99671.78;4980809;27;99293;-70
2024/03/02 01:49:47;;;;;;;;;;;;;;;10.73;52.04;99667.50;4982871;27;98421;-70
2024/03/02 01:52:13;;;;;;;;;;;;;;;10.73;52.23;99662.09;4969977;27;97916;-70
2024/03/02 01:54:40;;;;;;;;;;;;;;;10.72;52.10;99663.97;4982991;27;98489;-70
2024/03/02 01:57:06;;;;;;;;;;;;;;;10.73;52.29;99670.19;4997731;27;99688;-70
2024/03/02 01:59:33;;;;;;;;;;;;;;;10.71;52.10;99665.06;4993229;27;97969;-70
2024/03/02 02:02:00;;;;;;;;;;;;;;;10.72;52.13;99672.06;4968723;27;98336;-70
2024/03/02 02:04:27;;;;;;;;;;;;;;;10.73;51.87;99670.19;4999489;27;98171;-70
2024/03/02 02:06:54;;;;;;;;;;;;;;;10.73;51.99;99670.19;4975475;27;98260;-70
2024/03/02 02:09:21;;;;;;;;;;;;;;;10.72;52.00;99671.25;4986976;27;98389;-70
2024/03/02 02:11:47;;;;;;;;;;;;;;;10.72;51.67;99676.66;4979062;27;98037;-70
2024/03/02 02:14:13;;;;;;;;;;;;;;;10.72;52.39;99668.56;5002864;27;97905;-70
2024/03/02 02:16:40;;;;;;;;;;;;;;;10.70;52.06;99668.88;4975864;27;98387;-70
2024/03/02 02:19:06;;;;;;;;;;;;;;;10.71;52.12;99672.34;4982049;27;98971;-70
2024/03/02 02:21:33;;;;;;;;;;;;;;;10.71;51.73;99678.56;4968904;27;98054;-70
2024/03/02 02:24:03;;;;;;;;;;;;;;;10.69;52.16;99669.97;4983875;27;98045;-70
2024/03/02 02:26:29;;;;;;;;;;;;;;;10.71;52.13;99669.66;4970254;27;98271;-70
2024/03/02 02:28:57;;;;;;;;;;;;;;;10.70;51.88;99666.16;4962137;27;98248;-70
2024/03/02 02:31:24;;;;;;;;;;;;;;;10.69;52.14;99663.75;4974729;27;99955;-70
2024/03/02 02:33:50;;;;;;;;;;;;;;;10.70;52.03;99666.16;4983949;27;100908;-70
2024/03/02 02:36:17;;;;;;;;;;;;;;;10.70;52.13;99663.47;4980667;27;98270;-69
2024/03/02 02:38:45;;;;;;;;;;;;;;;10.70;52.14;99663.47;4982102;27;98078;-70
2024/03/02 02:41:12;;;;;;;;;;;;;;;10.71;51.93;99664.28;4968598;27;98553;-70
2024/03/02 02:43:42;;;;;;;;;;;;;;;10.70;51.89;99662.69;4977568;27;99352;-70
2024/03/02 02:46:08;;;;;;;;;;;;;;;10.70;51.88;99665.38;4967725;27;98950;-70
2024/03/02 02:48:35;;;;;;;;;;;;;;;10.69;52.13;99667.28;4963186;27;99217;-70
2024/03/02 02:51:01;;;;;;;;;;;;;;;10.69;52.19;99659.19;4978488;27;98012;-70
2024/03/02 02:53:27;;;;;;;;;;;;;;;10.70;52.09;99666.16;4982376;27;98055;-70
2024/03/02 02:55:54;;;;;;;;;;;;;;;10.69;52.04;99656.50;4969500;27;99980;-70
2024/03/02 02:58:20;;;;;;;;;;;;;;;10.69;52.16;99661.03;4962923;27;99027;-70
2024/03/02 03:00:47;;;;;;;;;;;;;;;10.69;52.04;99658.34;4978477;27;98909;-70
2024/03/02 03:03:14;;;;;;;;;;;;;;;10.68;52.26;99665.63;4967827;27;100352;-70
2024/03/02 03:05:41;;;;;;;;;;;;;;;10.68;52.06;99662.94;4978225;27;98093;-70
2024/03/02 03:08:07;;;;;;;;;;;;;;;10.67;52.15;99664.03;4966837;27;98138;-70
2024/03/02 03:10:34;;;;;;;;;;;;;;;10.69;51.89;99663.75;4981510;27;97988;-70
2024/03/02 03:13:00;;;;;;;;;;;;;;;10.68;52.18;99678.31;4969511;27;98357;-70
2024/03/02 03:15:26;;;;;;;;;;;;;;;10.68;51.88;99668.34;4983963;27;98558;-70
2024/03/02 03:17:53;;;;;;;;;;;;;;;10.68;52.19;99659.44;4985010;27;98006;-70
2024/03/02 03:20:21;;;;;;;;;;;;;;;10.68;52.16;99664.84;4978591;27;98225;-70
2024/03/02 03:22:47;;;;;;;;;;;;;;;10.68;52.15;99656.75;4970177;27;98268;-70
2024/03/02 03:25:16;;;;;;;;;;;;;;;10.68;52.30;99654.06;4979419;27;116877;-70
2024/03/02 03:27:42;;;;;;;;;;;;;;;10.67;51.84;99655.16;4979787;27;98038;-70
2024/03/02 03:30:09;;;;;;;;;;;;;;;10.67;52.15;99653.25;4976254;27;98051;-70
2024/03/02 03:32:35;;;;;;;;;;;;;;;10.66;51.97;99651.66;4979933;27;97977;-70
2024/03/02 03:35:02;;;;;;;;;;;;;;;10.67;52.35;99655.16;4963399;27;97849;-70
2024/03/02 03:37:32;;;;;;;;;;;;;;;10.67;51.98;99652.47;4963685;27;98574;-69
2024/03/02 03:39:59;;;;;;;;;;;;;;;10.66;51.96;99654.34;4977531;27;98398;-70
2024/03/02 03:42:26;;;;;;;;;;;;;;;10.67;52.15;99655.97;4991969;27;97974;-70
2024/03/02 03:44:53;;;;;;;;;;;;;;;10.66;52.01;99662.44;4968052;27;97922;-70
2024/03/02 03:47:20;;;;;;;;;;;;;;;10.66;51.92;99658.94;4978249;27;99426;-70
2024/03/02 03:49:46;;;;;;;;;;;;;;;10.65;52.17;99660.84;4984037;27;98132;-70
2024/03/02 03:52:12;;;;;;;;;;;;;;;10.66;52.40;99653.56;4979033;27;98279;-70
2024/03/02 03:54:38;;;;;;;;;;;;;;;10.65;51.92;99654.63;4960705;27;99226;-70
2024/03/02 03:57:05;;;;;;;;;;;;;;;10.64;52.09;99659.22;4958051;27;98802;-70
2024/03/02 03:59:32;;;;;;;;;;;;;;;10.63;52.23;99660.31;4982493;27;98362;-70
2024/03/02 04:01:59;;;;;;;;;;;;;;;10.63;52.00;99657.63;4980817;27;98263;-70
2024/03/02 04:04:26;;;;;;;;;;;;;;;10.63;52.02;99662.22;4965866;27;98453;-70
2024/03/02 04:06:53;;;;;;;;;;;;;;;10.64;51.97;99669.19;4966455;27;99158;-70
2024/03/02 04:09:19;;;;;;;;;;;;;;;10.63;52.49;99667.59;4961550;27;99095;-70
2024/03/02 04:11:46;;;;;;;;;;;;;;;10.63;51.91;99659.53;4980635;27;98147;-70
2024/03/02 04:14:12;;;;;;;;;;;;;;;10.64;52.16;99661.13;4975762;27;98022;-70
2024/03/02 04:16:39;;;;;;;;;;;;;;;10.63;52.18;99667.59;4977132;27;98359;-70
2024/03/02 04:19:06;;;;;;;;;;;;;;;10.62;52.27;99669.50;4963259;27;98133;-70
2024/03/02 04:21:33;;;;;;;;;;;;;;;10.62;51.99;99671.41;4959813;27;98170;-70
2024/03/02 04:24:00;;;;;;;;;;;;;;;10.62;52.15;99674.09;4977447;27;98108;-70
2024/03/02 04:26:27;;;;;;;;;;;;;;;10.61;52.19;99677.84;4961547;27;97942;-70
2024/03/02 04:28:54;;;;;;;;;;;;;;;10.62;51.95;99682.19;4960225;27;98054;-70
2024/03/02 04:31:21;;;;;;;;;;;;;;;10.62;51.85;99690.25;4974760;27;98462;-70
2024/03/02 04:33:48;;;;;;;;;;;;;;;10.61;52.08;99681.38;4982740;27;99293;-70
2024/03/02 04:36:14;;;;;;;;;;;;;;;10.60;52.33;99678.94;4983589;27;99569;-70
2024/03/02 04:38:41;;;;;;;;;;;;;;;10.60;51.95;99687.03;4972549;27;98048;-70
2024/03/02 04:41:08;;;;;;;;;;;;;;;10.60;52.17;99690.53;4982727;27;98871;-70
2024/03/02 04:43:37;;;;;;;;;;;;;;;10.59;52.30;99688.94;4980067;27;98328;-70
2024/03/02 04:46:04;;;;;;;;;;;;;;;10.59;52.30;99672.75;4963949;27;100077;-70
2024/03/02 04:48:31;;;;;;;;;;;;;;;10.59;52.15;99683.53;4982227;27;98073;-70
2024/03/02 04:50:58;;;;;;;;;;;;;;;10.59;52.12;99693.53;4982672;27;98637;-70
2024/03/02 04:53:25;;;;;;;;;;;;;;;10.58;52.44;99687.34;4998074;27;98468;-70
2024/03/02 04:56:26;;;;;;;;;;;;;;;10.57;52.23;99691.09;4987044;27;97971;-70
2024/03/02 04:58:50;;;;;;;;;;;;;;;10.56;51.85;99695.69;4986235;27;98334;-70
2024/03/02 05:01:17;;;;;;;;;;;;;;;10.56;52.11;99698.38;4975173;27;98179;-70
2024/03/02 05:03:45;;;;;;;;;;;;;;;10.56;52.23;99697.56;4968122;27;99274;-70
2024/03/02 05:06:11;;;;;;;;;;;;;;;10.56;51.87;99700.28;4969536;27;99498;-70
2024/03/02 05:08:37;;;;;;;;;;;;;;;10.55;51.81;99707.56;4986944;27;98308;-70
2024/03/02 05:13:49;;;;;;;;;;;;;;;10.53;52.25;99712.44;4986425;27;99597;-70
2024/03/02 05:16:16;;;;;;;;;;;;;;;10.55;52.12;99717.53;4990315;27;98429;-70
2024/03/02 05:18:43;;;;;;;;;;;;;;;10.55;52.10;99722.94;4966368;27;100412;-70
2024/03/02 05:21:11;;;;;;;;;;;;;;;10.54;52.45;99724.81;4990679;27;97938;-69
2024/03/02 05:23:38;;;;;;;;;;;;;;;10.53;52.24;99731.31;4973097;27;98033;-70
2024/03/02 05:26:04;;;;;;;;;;;;;;;10.53;52.32;99734.00;4988938;27;98389;-70
2024/03/02 05:28:30;;;;;;;;;;;;;;;10.53;52.38;99735.88;4972086;27;98306;-70
2024/03/02 05:30:57;;;;;;;;;;;;;;;10.53;52.34;99735.88;4986298;27;98560;-70
2024/03/02 05:33:23;;;;;;;;;;;;;;;10.53;52.24;99741.25;4983995;27;98042;-70
2024/03/02 05:35:50;;;;;;;;;;;;;;;10.53;52.30;99736.69;4987401;27;99038;-70
2024/03/02 05:38:16;;;;;;;;;;;;;;;10.53;51.98;99742.09;4991737;27;98117;-70
2024/03/02 05:40:43;;;;;;;;;;;;;;;10.53;52.02;99744.78;4985410;27;99761;-70
2024/03/02 05:43:09;;;;;;;;;;;;;;;10.53;52.44;99741.25;4973703;27;98312;-70
2024/03/02 05:45:35;;;;;;;;;;;;;;;10.53;51.82;99744.78;5000513;27;98022;-70
2024/03/02 05:48:01;;;;;;;;;;;;;;;10.53;52.15;99738.56;4965527;27;98016;-70
2024/03/02 05:50:28;;;;;;;;;;;;;;;10.53;52.25;99744.78;4968185;27;98100;-70
2024/03/02 05:52:56;;;;;;;;;;;;;;;10.53;52.24;99741.25;4976665;27;98361;-70
2024/03/02 05:55:22;;;;;;;;;;;;;;;10.54;52.31;99750.97;4986586;27;98348;-70
2024/03/02 06:00:33;;;;;;;;;;;;;;;10.53;52.47;99747.47;5004932;27;98506;-70
2024/03/02 06:02:59;;;;;;;;;;;;;;;10.54;52.21;99753.66;4985800;27;100594;-70
2024/03/02 06:05:26;;;;;;;;;;;;;;;10.54;52.02;99757.16;4984868;27;98109;-70
2024/03/02 06:07:52;;;;;;;;;;;;;;;10.55;52.05;99749.88;5001618;27;98734;-70
2024/03/02 06:10:18;;;;;;;;;;;;;;;10.54;52.54;99757.16;4981363;27;98542;-69
2024/03/02 06:12:45;;;;;;;;;;;;;;;10.55;52.47;99769.53;5000466;27;98948;-69
2024/03/02 06:15:12;;;;;;;;;;;;;;;10.55;51.99;99766.03;4990092;27;98059;-70
2024/03/02 06:17:38;;;;;;;;;;;;;;;10.55;52.24;99766.03;4991220;27;97920;-70
2024/03/02 06:20:08;;;;;;;;;;;;;;;10.53;51.94;99769.03;4970553;27;99705;-70
2024/03/02 06:22:34;;;;;;;;;;;;;;;10.54;52.21;99776.03;4984819;27;99799;-71
2024/03/02 06:25:01;;;;;;;;;;;;;;;10.55;52.14;99787.59;4986260;27;98101;-70
2024/03/02 06:27:28;;;;;;;;;;;;;;;10.55;52.45;99787.59;4982073;27;98310;-70
2024/03/02 06:29:54;;;;;;;;;;;;;;;10.55;52.53;99780.31;4985427;27;102223;-70
2024/03/02 06:32:22;;;;;;;;;;;;;;;10.55;51.89;99796.50;4965861;27;99784;-70
2024/03/02 06:34:49;;;;;;;;;;;;;;;10.56;52.00;99795.41;4965236;27;100664;-70
2024/03/02 06:37:16;;;;;;;;;;;;;;;10.56;52.10;99791.91;4966747;27;98269;-70
2024/03/02 06:39:43;;;;;;;;;;;;;;;10.55;52.20;99787.59;5003654;27;98748;-70
2024/03/02 06:42:09;;;;;;;;;;;;;;;10.57;52.55;99801.59;4967044;27;101774;-70
2024/03/02 06:44:35;;;;;;;;;;;;;;;10.56;52.09;99794.59;4982936;27;99164;-70
2024/03/02 06:47:02;;;;;;;;;;;;;;;10.56;52.15;99792.69;4964896;27;98261;-70
2024/03/02 06:49:28;;;;;;;;;;;;;;;10.56;52.17;99799.97;4962790;27;100171;-70
2024/03/02 06:51:55;;;;;;;;;;;;;;;10.57;52.08;99806.97;4976104;27;98141;-70
2024/03/02 06:54:22;;;;;;;;;;;;;;;10.55;52.52;99799.19;4980803;27;98465;-69
2024/03/02 06:56:49;;;;;;;;;;;;;;;10.56;52.43;99806.19;4966782;27;98063;-69
2024/03/02 06:59:15;;;;;;;;;;;;;;;10.58;52.28;99805.91;4973454;27;98344;-70
2024/03/02 07:01:43;;;;;;;;;;;;;;;10.56;52.47;99799.97;4964545;27;98568;-69
2024/03/02 07:04:09;;;;;;;;;;;;;;;10.58;51.92;99808.59;4962915;27;99114;-69
2024/03/02 07:06:36;;;;;;;;;;;;;;;10.57;52.11;99806.97;4968374;27;98026;-69
2024/03/02 07:09:03;;;;;;;;;;;;;;;10.57;52.08;99815.88;4966003;27;98538;-70
2024/03/02 07:11:30;;;;;;;;;;;;;;;10.58;52.28;99822.06;4964703;27;98538;-70
2024/03/02 07:13:56;;;;;;;;;;;;;;;10.58;52.61;99816.69;4986018;27;97978;-70
2024/03/02 07:16:27;;;;;;;;;;;;;;;10.59;52.37;99820.19;4982960;27;99279;-70
2024/03/02 07:18:56;;;;;;;;;;;;;;;10.59;52.55;99825.56;4994236;27;98299;-70
2024/03/02 07:21:22;;;;;;;;;;;;;;;10.59;52.17;99829.06;4964622;27;98308;-70
2024/03/02 07:23:49;;;;;;;;;;;;;;;10.59;51.88;99829.06;4981240;27;97955;-70
2024/03/02 07:26:16;;;;;;;;;;;;;;;10.59;52.38;99833.66;4962215;27;97992;-70
2024/03/02 07:28:43;;;;;;;;;;;;;;;10.60;52.12;99838.75;4999242;27;98550;-70
2024/03/02 07:31:10;;;;;;;;;;;;;;;10.60;52.17;99836.06;4981205;27;99242;-71
2024/03/02 07:33:36;;;;;;;;;;;;;;;10.61;52.37;99835.00;4961668;27;97955;-70
2024/03/02 07:36:03;;;;;;;;;;;;;;;10.62;52.15;99833.91;4964465;27;98382;-70
2024/03/02 07:38:29;;;;;;;;;;;;;;;10.63;52.30;99835.50;4975096;27;98215;-70
2024/03/02 07:40:56;;;;;;;;;;;;;;;10.63;51.92;99838.19;4979730;27;98360;-69
2024/03/02 07:43:22;;;;;;;;;;;;;;;10.65;52.18;99843.28;4986613;27;98849;-70
2024/03/02 07:45:49;;;;;;;;;;;;;;;10.66;52.06;99853.00;4983251;27;98823;-70
2024/03/02 07:48:15;;;;;;;;;;;;;;;10.66;52.30;99851.13;4977260;27;98660;-69
2024/03/02 07:50:42;;;;;;;;;;;;;;;10.67;52.26;99849.22;4978795;27;98135;-69
2024/03/02 07:53:10;;;;;;;;;;;;;;;10.68;52.39;99857.00;4984248;27;98061;-70
2024/03/02 07:55:36;;;;;;;;;;;;;;;10.71;52.13;99863.75;4973323;27;98257;-70
2024/03/02 07:58:03;;;;;;;;;;;;;;;10.71;52.32;99861.84;4985532;27;98694;-70
2024/03/02 08:00:29;;;;;;;;;;;;;;;10.73;52.23;99861.59;4968383;27;99974;-70
2024/03/02 08:02:55;;;;;;;;;;;;;;;10.74;52.04;99864.00;4962931;27;99325;-70
2024/03/02 08:05:22;;;;;;;;;;;;;;;10.76;52.43;99869.09;4996607;27;98053;-70
2024/03/02 08:07:48;;;;;;;;;;;;;;;10.76;52.52;99869.09;4965553;27;99493;-70
2024/03/02 08:10:14;;;;;;;;;;;;;;;10.79;52.32;99872.03;4999080;27;98368;-70
2024/03/02 08:12:41;;;;;;;;;;;;;;;10.80;52.27;99872.81;4971934;27;100733;-70
2024/03/02 08:15:07;;;;;;;;;;;;;;;10.81;52.12;99875.25;4987600;27;98333;-70
2024/03/02 08:17:34;;;;;;;;;;;;;;;10.84;52.10;99879.25;4992512;27;98206;-70
2024/03/02 08:20:00;;;;;;;;;;;;;;;10.86;52.17;99884.38;4995621;27;99192;-70
2024/03/02 08:22:26;;;;;;;;;;;;;;;10.88;52.30;99882.19;4952389;27;98121;-70
2024/03/02 08:24:53;;;;;;;;;;;;;;;10.90;51.96;99885.44;4979751;27;98213;-70
2024/03/02 08:27:19;;;;;;;;;;;;;;;10.91;52.01;99887.03;4965618;27;98628;-70
2024/03/02 08:29:45;;;;;;;;;;;;;;;10.92;52.25;99894.03;4962835;27;98247;-70
2024/03/02 08:32:11;;;;;;;;;;;;;;;10.93;52.24;99892.97;4986043;27;99695;-70
2024/03/02 08:34:38;;;;;;;;;;;;;;;10.95;52.06;99898.84;4981092;27;98289;-70
2024/03/02 08:37:05;;;;;;;;;;;;;;;10.96;52.25;99898.56;4967926;27;98469;-70
2024/03/02 08:39:31;;;;;;;;;;;;;;;10.98;52.22;99895.59;4979402;27;99739;-70
2024/03/02 08:41:57;;;;;;;;;;;;;;;11.00;52.00;99890.72;4981872;27;98209;-70
2024/03/02 08:44:24;;;;;;;;;;;;;;;11.01;52.16;99889.66;4997786;27;98764;-70
2024/03/02 08:46:50;;;;;;;;;;;;;;;11.04;51.98;99892.59;4981240;27;98042;-70
2024/03/02 08:49:18;;;;;;;;;;;;;;;11.07;52.01;99888.50;5003172;27;98277;-70
2024/03/02 08:51:44;;;;;;;;;;;;;;;11.11;52.02;99886.03;5006534;27;98409;-70
2024/03/02 08:54:11;;;;;;;;;;;;;;;11.15;52.03;99890.56;4979438;27;100521;-70
2024/03/02 08:56:37;;;;;;;;;;;;;;;11.19;51.93;99891.59;4967108;27;103635;-70
2024/03/02 08:59:03;;;;;;;;;;;;;;;11.24;52.06;99883.47;4966436;27;98830;-70
2024/03/02 09:01:30;;;;;;;;;;;;;;;11.29;51.93;99888.81;4987140;27;98646;-70
2024/03/02 09:03:57;;;;;;;;;;;;;;;11.36;51.93;99898.44;4981926;27;98092;-70
2024/03/02 09:06:23;;;;;;;;;;;;;;;11.42;51.84;99891.94;4957026;27;98136;-70
2024/03/02 09:08:51;;;;;;;;;;;;;;;11.49;51.76;99889.69;4964131;27;98091;-70
2024/03/02 09:11:18;;;;;;;;;;;;;;;11.58;51.72;99887.16;4988756;27;99786;-70
2024/03/02 09:13:44;;;;;;;;;;;;;;;11.66;51.72;99886.53;4997647;27;100372;-70
2024/03/02 09:16:11;;;;;;;;;;;;;;;11.71;51.62;99884.59;4975452;27;98090;-70
2024/03/02 09:18:38;;;;;;;;;;;;;;;11.75;51.62;99895.59;4957526;27;98558;-70
2024/03/02 09:21:05;;;;;;;;;;;;;;;11.80;51.73;99896.34;4976647;27;98631;-70
2024/03/02 09:23:31;;;;;;;;;;;;;;;11.87;51.79;99898.72;4975424;27;98110;-70
2024/03/02 09:25:58;;;;;;;;;;;;;;;11.94;51.75;99890.25;4964712;27;98385;-70
2024/03/02 09:28:24;;;;;;;;;;;;;;;11.98;51.54;99894.78;4980559;27;98916;-70
2024/03/02 09:30:50;;;;;;;;;;;;;;;12.03;51.75;99897.44;5002247;27;98251;-70
2024/03/02 09:33:16;;;;;;;;;;;;;;;12.05;51.91;99902.53;4983747;27;98335;-70
2024/03/02 09:35:43;;;;;;;;;;;;;;;12.08;51.56;99906.56;4979792;27;100532;-70
2024/03/02 09:38:09;;;;;;;;;;;;;;;12.11;51.51;99909.50;4982277;27;99769;-70
2024/03/02 09:40:36;;;;;;;;;;;;;;;12.14;51.55;99910.78;4978557;27;98315;-70
2024/03/02 09:43:03;;;;;;;;;;;;;;;12.16;51.55;99917.53;4984338;27;98096;-70
2024/03/02 09:45:29;;;;;;;;;;;;;;;12.19;51.60;99916.16;4965789;27;98221;-70
2024/03/02 09:47:55;;;;;;;;;;;;;;;12.22;51.76;99912.84;4974784;27;97946;-70
2024/03/02 09:50:22;;;;;;;;;;;;;;;12.27;51.70;99919.00;4963299;27;99453;-70
2024/03/02 09:52:50;;;;;;;;;;;;;;;12.33;51.43;99919.72;4977269;27;98125;-70
2024/03/02 09:55:17;;;;;;;;;;;;;;;12.39;51.52;99912.34;5003348;27;98511;-70
2024/03/02 09:57:44;;;;;;;;;;;;;;;12.44;51.68;99913.06;4982054;27;99599;-70
2024/03/02 10:00:14;;;;;;;;;;;;;;;12.49;51.52;99915.69;4995175;27;98867;-70
2024/03/02 10:02:41;;;;;;;;;;;;;;;12.57;51.59;99922.34;4948147;27;98851;-70
2024/03/02 10:05:08;;;;;;;;;;;;;;;12.67;51.44;99921.41;4979338;27;99129;-70
2024/03/02 10:07:35;;;;;;;;;;;;;;;12.77;51.35;99921.22;4985583;27;98072;-70
2024/03/02 10:10:13;;;;;;;;;;;;;;;12.90;51.40;99906.97;4985842;27;98387;-70
2024/03/02 10:12:40;;;;;;;;;;;;;;;13.00;51.30;99914.09;4960319;27;98147;-70
2024/03/02 10:15:07;;;;;;;;;;;;;;;13.18;51.26;99896.19;4966533;27;98410;-71
2024/03/02 10:17:34;;;;;;;;;;;;;;;13.41;51.09;99903.38;4958422;27;98187;-70
2024/03/02 10:20:07;;;;;;;;;;;;;;;13.73;50.78;99893.56;4995785;27;98297;-70
2024/03/02 10:22:34;;;;;;;;;;;;;;;14.25;49.95;99884.03;4980769;27;98602;-70
2024/03/02 10:25:01;;;;;;;;;;;;;;;14.61;49.95;99883.22;5004892;27;98121;-69
2024/03/02 10:27:28;;;;;;;;;;;;;;;14.76;49.89;99881.28;4975686;27;98171;-70
2024/03/02 10:29:55;;;;;;;;;;;;;;;14.85;50.06;99877.50;4981193;27;98710;-70
2024/03/02 10:32:22;;;;;;;;;;;;;;;14.94;50.14;99883.00;4987585;27;98136;-70
2024/03/02 10:34:48;;;;;;;;;;;;;;;15.13;50.31;99883.59;4977620;27;99389;-70
2024/03/02 10:37:17;;;;;;;;;;;;;;;15.40;49.93;99877.13;4958307;27;99070;-70
2024/03/02 10:39:43;;;;;;;;;;;;;;;15.84;49.60;99875.41;4961558;27;98273;-70
2024/03/02 10:42:09;;;;;;;;;;;;;;;16.41;49.08;99878.00;4991145;27;98295;-70
2024/03/02 10:44:36;;;;;;;;;;;;;;;17.21;48.32;99866.69;4986099;27;98231;-70
2024/03/02 10:47:03;;;;;;;;;;;;;;;17.80;47.89;99858.63;4967253;27;98034;-70
2024/03/02 10:49:31;;;;;;;;;;;;;;;18.24;47.99;99861.03;4970832;27;98676;-70
2024/03/02 10:52:00;;;;;;;;;;;;;;;18.46;48.24;99854.44;4982543;27;98256;-70
2024/03/02 10:54:28;;;;;;;;;;;;;;;18.68;48.10;99865.00;4979613;27;100210;-70
2024/03/02 10:56:57;;;;;;;;;;;;;;;19.49;47.37;99866.22;4994419;27;98842;-70
2024/03/02 10:59:30;;;;;;;;;;;;;;;19.56;47.78;99863.69;4976721;27;98040;-70
2024/03/02 11:02:01;;;;;;;;;;;;;;;19.52;48.08;99872.91;4991417;27;98734;-70
2024/03/02 11:04:28;;;;;;;;;;;;;;;19.73;48.19;99870.06;4980867;27;98589;-70
2024/03/02 11:07:03;;;;;;;;;;;;;;;20.01;47.93;99862.78;4975108;27;97972;-70
2024/03/02 11:09:30;;;;;;;;;;;;;;;20.06;48.21;99865.25;4978416;27;97967;-70
2024/03/02 11:12:19;;;;;;;;;;;;;;;20.12;48.31;99863.06;4975783;27;98164;-70
2024/03/02 11:14:45;;;;;;;;;;;;;;;20.40;48.28;99857.66;4968059;27;98289;-71
2024/03/02 11:17:15;;;;;;;;;;;;;;;20.85;47.82;99851.09;4954204;27;98239;-70
2024/03/02 11:19:41;;;;;;;;;;;;;;;20.66;48.45;99849.00;4961172;27;98122;-70
2024/03/02 11:22:08;;;;;;;;;;;;;;;20.52;48.78;99854.09;4974259;27;98478;-70
2024/03/02 11:24:34;;;;;;;;;;;;;;;20.61;48.73;99857.47;4978072;27;98131;-70
2024/03/02 11:27:01;;;;;;;;;;;;;;;20.77;48.73;99849.31;4962733;27;98030;-70
2024/03/02 11:29:39;;;;;;;;;;;;;;;20.92;48.50;99850.47;4992077;27;98570;-71
2024/03/02 11:32:17;;;;;;;;;;;;;;;20.87;48.88;99853.47;5007200;27;98829;-71
2024/03/02 11:34:49;;;;;;;;;;;;;;;21.04;48.76;99845.72;4978259;27;98373;-70
2024/03/02 11:37:15;;;;;;;;;;;;;;;21.10;48.71;99843.50;4981756;27;98146;-70
2024/03/02 11:39:44;;;;;;;;;;;;;;;21.00;49.10;99850.31;4978742;27;98349;-70
2024/03/02 11:42:11;;;;;;;;;;;;;;;21.31;48.75;99833.09;4964153;27;98252;-70
2024/03/02 11:44:37;;;;;;;;;;;;;;;21.41;48.65;99831.78;4973213;27;97987;-70
2024/03/02 11:47:07;;;;;;;;;;;;;;;21.41;48.90;99840.00;4959854;27;98441;-70
2024/03/02 11:49:39;;;;;;;;;;;;;;;21.34;49.19;99839.84;4972725;27;98288;-70
2024/03/02 11:52:07;;;;;;;;;;;;;;;21.24;49.36;99845.81;4991661;27;97949;-71
2024/03/02 11:54:35;;;;;;;;;;;;;;;21.16;49.43;99853.06;4986453;27;98146;-70
2024/03/02 11:57:02;;;;;;;;;;;;;;;21.39;49.16;99839.56;4958920;27;98137;-70
2024/03/02 11:59:29;;;;;;;;;;;;;;;21.43;49.03;99842.41;4962179;27;98026;-70
2024/03/02 12:01:56;;;;;;;;;;;;;;;21.75;48.77;99843.94;4962140;27;98247;-70
2024/03/02 12:04:23;;;;;;;;;;;;;;;21.61;49.35;99843.59;4980775;27;99112;-71
2024/03/02 12:06:59;;;;;;;;;;;;;;;21.49;49.32;99838.22;4959062;27;98386;-70
2024/03/02 12:09:26;;;;;;;;;;;;;;;21.50;49.41;99834.34;4956122;27;99705;-70
2024/03/02 12:12:22;;;;;;;;;;;;;;;21.53;49.38;99837.16;4978196;27;98143;-70
2024/03/02 12:14:53;;;;;;;;;;;;;;;21.39;49.59;99836.03;4968736;27;98353;-70
2024/03/02 12:17:19;;;;;;;;;;;;;;;21.24;49.80;99832.91;4953618;27;99555;-71
2024/03/02 12:19:46;;;;;;;;;;;;;;;21.14;49.87;99836.16;4958236;27;98236;-70
2024/03/02 12:22:12;;;;;;;;;;;;;;;21.08;50.06;99835.66;4961537;27;97918;-70
2024/03/02 12:24:38;;;;;;;;;;;;;;;21.03;50.02;99835.91;4942588;27;98108;-71
2024/03/02 12:27:07;;;;;;;;;;;;;;;21.07;49.92;99836.00;4939898;27;98055;-71
2024/03/02 12:29:34;;;;;;;;;;;;;;;20.97;50.08;99840.06;4956747;27;98358;-71
2024/03/02 12:32:03;;;;;;;;;;;;;;;20.90;50.28;99839.06;4955199;27;98580;-71
2024/03/02 12:34:31;;;;;;;;;;;;;;;20.89;50.05;99835.53;4962570;27;97989;-70
2024/03/02 12:36:58;;;;;;;;;;;;;;;20.75;50.33;99844.19;4964926;27;99247;-70
2024/03/02 12:39:24;;;;;;;;;;;;;;;20.50;50.58;99835.28;4959548;27;99049;-70
2024/03/02 12:41:53;;;;;;;;;;;;;;;20.24;50.87;99837.63;4945113;27;98158;-70
2024/03/02 12:44:20;;;;;;;;;;;;;;;20.01;51.16;99829.16;4963812;27;97991;-70
2024/03/02 12:46:46;;;;;;;;;;;;;;;19.77;51.36;99832.75;4946073;27;98150;-71
2024/03/02 12:49:15;;;;;;;;;;;;;;;19.52;51.33;99827.25;4949250;27;99334;-70
2024/03/02 12:51:42;;;;;;;;;;;;;;;19.32;51.47;99831.69;4957726;27;98224;-70